createdAt,value
2022-12-17T00:00:04.402Z,-1.93
2022-12-17T00:05:26.744Z,-2.04
2022-12-17T00:10:46.819Z,-2.07
2022-12-17T00:16:11.112Z,-2.29
2022-12-17T00:21:32.760Z,-2.35
2022-12-17T00:26:53.404Z,-2.49
2022-12-17T00:32:14.181Z,-2.49
2022-12-17T00:37:35.799Z,-2.54
2022-12-17T00:42:56.337Z,-2.55
2022-12-17T00:48:16.797Z,-2.60
2022-12-17T00:53:35.151Z,-2.54
2022-12-17T00:58:55.101Z,-2.46
2022-12-17T01:04:20.714Z,-2.67
2022-12-17T01:09:43.238Z,-2.56
2022-12-17T01:15:04.274Z,-2.43
2022-12-17T01:20:25.970Z,-2.34
2022-12-17T01:25:48.188Z,-2.39
2022-12-17T01:31:11.679Z,-2.32
2022-12-17T01:36:31.968Z,-2.14
2022-12-17T01:41:53.437Z,-2.09
2022-12-17T01:47:13.950Z,-2.29
2022-12-17T01:52:35.019Z,-2.38
2022-12-17T01:57:57.263Z,-2.27
2022-12-17T02:03:18.452Z,-2.37
2022-12-17T02:08:49.257Z,-2.40
2022-12-17T02:14:22.407Z,-2.68
2022-12-17T02:19:54.001Z,-2.77
2022-12-17T02:25:20.709Z,-2.73
2022-12-17T02:30:43.692Z,-2.69
2022-12-17T02:36:12.574Z,-2.62
2022-12-17T02:41:35.931Z,-2.72
2022-12-17T02:47:11.911Z,-2.99
2022-12-17T02:52:36.420Z,-3.09
2022-12-17T02:57:56.603Z,-3.14
2022-12-17T03:03:18.246Z,-3.06
2022-12-17T03:08:38.524Z,-2.99
2022-12-17T03:13:59.751Z,-3.05
2022-12-17T03:19:22.441Z,-3.26
2022-12-17T03:24:43.159Z,-3.42
2022-12-17T03:30:03.691Z,-3.51
2022-12-17T03:35:25.411Z,-3.47
2022-12-17T03:40:45.786Z,-3.54
2022-12-17T03:46:10.594Z,-3.57
2022-12-17T03:51:32.068Z,-3.56
2022-12-17T03:56:52.576Z,-3.42
2022-12-17T04:02:12.864Z,-3.43
2022-12-17T04:07:34.883Z,-3.52
2022-12-17T04:12:54.931Z,-3.54
2022-12-17T04:18:15.552Z,-3.35
2022-12-17T04:23:37.143Z,-3.30
2022-12-17T04:28:57.460Z,-3.39
2022-12-17T04:34:17.622Z,-3.53
2022-12-17T04:39:39.162Z,-3.57
2022-12-17T04:44:59.374Z,-3.64
2022-12-17T04:50:19.907Z,-3.73
2022-12-17T04:55:41.302Z,-3.63
2022-12-17T05:01:01.782Z,-3.62
2022-12-17T05:06:31.584Z,-3.57
2022-12-17T05:11:53.281Z,-3.46
2022-12-17T05:17:13.517Z,-3.55
2022-12-17T05:22:33.849Z,-3.58
2022-12-17T05:27:56.497Z,-3.51
2022-12-17T05:33:18.200Z,-3.58
2022-12-17T05:38:51.523Z,-3.53
2022-12-17T05:44:14.349Z,-3.50
2022-12-17T05:49:34.380Z,-3.51
2022-12-17T05:54:54.919Z,-3.49
2022-12-17T06:00:16.771Z,-3.43
2022-12-17T06:05:36.922Z,-3.23
2022-12-17T06:10:57.162Z,-3.35
2022-12-17T06:16:18.887Z,-3.20
2022-12-17T06:21:40.393Z,-3.35
2022-12-17T06:27:00.837Z,-3.32
2022-12-17T06:32:23.029Z,-3.46
2022-12-17T06:37:43.589Z,-3.29
2022-12-17T06:43:11.786Z,-3.35
2022-12-17T06:48:33.309Z,-3.32
2022-12-17T06:53:53.974Z,-3.31
2022-12-17T06:59:14.379Z,-3.50
2022-12-17T07:04:36.853Z,-3.40
2022-12-17T07:09:57.347Z,-3.37
2022-12-17T07:15:35.024Z,-3.36
2022-12-17T07:20:56.867Z,-3.25
2022-12-17T07:26:17.122Z,-3.23
2022-12-17T07:31:37.428Z,-3.28
2022-12-17T07:36:59.446Z,-3.32
2022-12-17T07:42:19.660Z,-3.33
2022-12-17T07:47:40.033Z,-3.34
2022-12-17T07:53:10.234Z,-3.43
2022-12-17T07:58:34.591Z,-3.45
2022-12-17T08:04:12.877Z,-3.28
2022-12-17T08:15:47.587Z,-3.05
2022-12-17T08:21:08.819Z,-3.11
2022-12-17T08:26:42.091Z,-3.11
2022-12-17T08:32:06.348Z,-2.98
2022-12-17T08:37:26.484Z,-2.98
2022-12-17T08:42:48.621Z,-3.10
2022-12-17T08:48:08.950Z,-2.82
2022-12-17T08:53:34.563Z,-2.25
2022-12-17T08:58:59.283Z,-2.27
2022-12-17T09:04:20.269Z,-2.16
2022-12-17T09:09:40.587Z,-1.99
2022-12-17T09:15:17.541Z,-2.08
2022-12-17T09:20:39.189Z,-1.92
2022-12-17T09:25:59.343Z,-1.91
2022-12-17T09:31:20.804Z,-1.94
2022-12-17T09:36:41.161Z,-2.02
2022-12-17T09:42:10.217Z,-1.57
2022-12-17T09:47:50.443Z,-1.61
2022-12-17T09:53:11.283Z,-1.78
2022-12-17T09:58:38.308Z,-2.07
2022-12-17T10:04:07.795Z,-2.08
2022-12-17T10:09:31.779Z,-2.33
2022-12-17T10:14:52.099Z,-2.09
2022-12-17T10:20:14.429Z,-2.00
2022-12-17T10:25:36.815Z,-1.83
2022-12-17T10:30:57.554Z,-1.89
2022-12-17T10:36:18.994Z,-1.87
2022-12-17T10:41:42.713Z,-1.77
2022-12-17T10:53:06.631Z,-1.60
2022-12-17T10:58:32.411Z,-1.49
2022-12-17T11:04:05.659Z,-1.40
2022-12-17T11:09:41.523Z,-1.26
2022-12-17T11:15:09.326Z,-1.16
2022-12-17T11:20:41.581Z,-1.16
2022-12-17T11:26:11.642Z,-0.96
2022-12-17T11:31:53.891Z,-0.87
2022-12-17T11:37:20.320Z,-0.84
2022-12-17T11:42:49.281Z,-0.68
2022-12-17T11:48:13.005Z,-0.70
2022-12-17T11:53:48.807Z,-0.57
2022-12-17T11:59:14.039Z,-0.47
2022-12-17T12:04:52.337Z,-0.40
2022-12-17T12:10:18.115Z,-0.42
2022-12-17T12:15:48.345Z,-0.49
2022-12-17T12:21:29.791Z,-0.41
2022-12-17T12:26:59.541Z,-0.49
2022-12-17T12:32:42.796Z,-0.32
2022-12-17T12:38:03.772Z,-0.35
2022-12-17T12:43:33.513Z,-0.08
2022-12-17T12:49:02.065Z,-0.15
2022-12-17T12:54:46.908Z,-0.19
2022-12-17T13:00:04.500Z,-0.21
2022-12-17T13:05:35.581Z,-0.18
2022-12-17T13:10:38.672Z,-0.11
2022-12-17T13:15:47.895Z,-0.24
2022-12-17T13:21:01.427Z,-0.13
2022-12-17T13:26:23.659Z,-0.16
2022-12-17T13:31:28.620Z,-0.33
2022-12-17T13:36:40.297Z,-0.31
2022-12-17T13:41:43.160Z,-0.31
2022-12-17T13:46:48.175Z,-0.34
2022-12-17T13:52:09.632Z,-0.37
2022-12-17T13:57:16.420Z,-0.57
2022-12-17T14:02:26.657Z,-0.69
2022-12-17T14:07:34.337Z,-0.71
2022-12-17T14:12:37.217Z,-0.72
2022-12-17T14:17:46.044Z,-0.65
2022-12-17T14:22:52.390Z,-0.60
2022-12-17T14:27:57.756Z,-0.82
2022-12-17T14:33:00.703Z,-0.68
2022-12-17T14:38:05.630Z,-0.73
2022-12-17T14:43:08.618Z,-0.96
2022-12-17T14:48:16.538Z,-1.13
2022-12-17T14:53:28.384Z,-1.28
2022-12-17T14:58:32.075Z,-1.55
2022-12-17T15:03:40.886Z,-1.54
2022-12-17T15:08:47.261Z,-1.67
2022-12-17T15:13:54.549Z,-1.81
2022-12-17T15:19:00.544Z,-1.70
2022-12-17T15:24:05.253Z,-1.80
2022-12-17T15:29:07.982Z,-1.75
2022-12-17T15:34:12.277Z,-1.79
2022-12-17T15:39:17.129Z,-1.76
2022-12-17T15:44:19.880Z,-1.63
2022-12-17T15:49:22.795Z,-1.66
2022-12-17T15:54:26.958Z,-1.67
2022-12-17T15:59:29.899Z,-1.77
2022-12-17T16:04:32.664Z,-1.94
2022-12-17T16:09:36.768Z,-2.00
2022-12-17T16:14:39.684Z,-1.82
2022-12-17T16:19:42.675Z,-1.84
2022-12-17T16:24:47.232Z,-1.79
2022-12-17T16:29:50.306Z,-1.83
2022-12-17T16:34:53.230Z,-1.77
2022-12-17T16:40:00.143Z,-1.56
2022-12-17T16:45:03.359Z,-1.53
2022-12-17T16:50:06.936Z,-1.61
2022-12-17T16:55:11.278Z,-1.65
2022-12-17T17:00:15.073Z,-1.83
2022-12-17T17:05:17.864Z,-1.89
2022-12-17T17:10:22.119Z,-1.80
2022-12-17T17:15:24.923Z,-1.82
2022-12-17T17:20:27.748Z,-1.91
2022-12-17T17:25:54.205Z,-1.99
2022-12-17T17:30:59.954Z,-1.76
2022-12-17T17:36:07.135Z,-2.09
2022-12-17T17:41:14.088Z,-1.90
2022-12-17T17:46:19.852Z,-1.98
2022-12-17T17:51:52.065Z,-2.24
2022-12-17T17:56:49.453Z,-2.41
2022-12-17T18:01:52.924Z,-2.23
2022-12-17T18:12:38.560Z,-2.18
2022-12-17T18:17:41.439Z,-2.25
2022-12-17T18:22:45.849Z,-2.38
2022-12-17T18:27:52.911Z,-2.38
2022-12-17T18:32:56.103Z,-2.29
2022-12-17T18:38:00.580Z,-2.09
2022-12-17T18:43:22.232Z,-2.43
2022-12-17T18:48:25.319Z,-2.47
2022-12-17T18:53:28.257Z,-2.30
2022-12-17T18:58:32.476Z,-2.61
2022-12-17T19:03:35.313Z,-2.64
2022-12-17T19:08:40.535Z,-2.70
2022-12-17T19:13:53.304Z,-2.88
2022-12-17T19:18:58.238Z,-2.97
2022-12-17T19:24:02.901Z,-3.06
2022-12-17T19:29:08.472Z,-3.00
2022-12-17T19:34:13.187Z,-2.68
2022-12-17T19:39:17.919Z,-2.82
2022-12-17T19:44:22.193Z,-2.88
2022-12-17T19:49:24.995Z,-2.85
2022-12-17T19:54:27.780Z,-2.75
2022-12-17T19:59:32.003Z,-2.98
2022-12-17T20:04:34.978Z,-2.98
2022-12-17T20:09:37.799Z,-3.07
2022-12-17T20:14:42.008Z,-2.99
2022-12-17T20:19:44.938Z,-2.94
2022-12-17T20:24:47.740Z,-2.94
2022-12-17T20:29:51.956Z,-3.11
2022-12-17T20:34:54.892Z,-3.09
2022-12-17T20:39:58.008Z,-2.92
2022-12-17T20:45:02.328Z,-2.33
2022-12-17T20:50:05.929Z,-2.50
2022-12-17T20:55:09.282Z,-2.58
2022-12-17T21:00:14.209Z,-2.74
2022-12-17T21:05:17.998Z,-2.73
2022-12-17T21:10:20.868Z,-2.88
2022-12-17T21:15:48.877Z,-2.58
2022-12-17T21:20:59.201Z,-2.66
2022-12-17T21:26:08.595Z,-2.86
2022-12-17T21:31:19.361Z,-2.77
2022-12-17T21:36:26.103Z,-2.85
2022-12-17T21:41:30.758Z,-2.74
2022-12-17T21:46:35.518Z,-2.73
2022-12-17T21:51:38.983Z,-2.97
2022-12-17T21:56:41.970Z,-2.93
2022-12-17T22:01:49.164Z,-2.74
2022-12-17T22:07:17.387Z,-2.63
2022-12-17T22:12:39.427Z,-2.83
2022-12-17T22:17:44.981Z,-3.03
2022-12-17T22:22:49.150Z,-3.06
2022-12-17T22:27:52.100Z,-3.07
2022-12-17T22:33:02.754Z,-3.06
2022-12-17T22:40:37.943Z,-2.96
2022-12-17T22:44:44.079Z,-3.28
2022-12-17T22:49:03.226Z,-3.27
2022-12-17T22:54:07.363Z,-3.04
2022-12-17T22:59:15.928Z,-3.12
2022-12-17T23:04:21.294Z,-3.48
2022-12-17T23:09:24.152Z,-3.31
2022-12-17T23:14:27.036Z,-3.76
2022-12-17T23:19:31.235Z,-3.65
2022-12-17T23:24:36.206Z,-3.75
2022-12-17T23:29:38.974Z,-3.85
2022-12-17T23:34:43.640Z,-3.96
2022-12-17T23:39:46.509Z,-3.93
2022-12-17T23:44:49.299Z,-4.09
2022-12-17T23:49:53.644Z,-4.09
2022-12-17T23:54:56.478Z,-4.03
2022-12-17T23:59:59.466Z,-3.98
